sensor_id;sensor_type;location;lat;lon;timestamp;P1;durP1;ratioP1;P2;durP2;ratioP2
64619;SDS011;51029;51.058;13.826;2022-10-17T00:01:08;5.73;;;4.30;;
64619;SDS011;51029;51.058;13.826;2022-10-17T00:03:34;5.90;;;4.20;;
64619;SDS011;51029;51.058;13.826;2022-10-17T00:06:05;5.13;;;4.00;;
64619;SDS011;51029;51.058;13.826;2022-10-17T00:08:32;6.33;;;3.90;;
64619;SDS011;51029;51.058;13.826;2022-10-17T00:10:59;8.70;;;4.73;;
64619;SDS011;51029;51.058;13.826;2022-10-17T00:13:27;4.93;;;4.03;;
64619;SDS011;51029;51.058;13.826;2022-10-17T00:15:53;7.47;;;4.30;;
64619;SDS011;51029;51.058;13.826;2022-10-17T00:18:19;6.93;;;4.67;;
64619;SDS011;51029;51.058;13.826;2022-10-17T00:20:45;6.63;;;4.40;;
64619;SDS011;51029;51.058;13.826;2022-10-17T00:23:10;8.67;;;4.60;;
64619;SDS011;51029;51.058;13.826;2022-10-17T00:25:36;6.40;;;4.37;;
64619;SDS011;51029;51.058;13.826;2022-10-17T00:28:02;8.53;;;4.13;;
64619;SDS011;51029;51.058;13.826;2022-10-17T00:30:28;9.33;;;4.60;;
64619;SDS011;51029;51.058;13.826;2022-10-17T00:32:54;11.27;;;4.87;;
64619;SDS011;51029;51.058;13.826;2022-10-17T00:35:19;5.60;;;4.53;;
64619;SDS011;51029;51.058;13.826;2022-10-17T00:37:45;7.07;;;4.70;;
64619;SDS011;51029;51.058;13.826;2022-10-17T00:40:11;8.47;;;4.63;;
64619;SDS011;51029;51.058;13.826;2022-10-17T00:42:36;12.30;;;4.60;;
64619;SDS011;51029;51.058;13.826;2022-10-17T00:47:57;10.63;;;5.10;;
64619;SDS011;51029;51.058;13.826;2022-10-17T00:50:27;9.70;;;5.97;;
64619;SDS011;51029;51.058;13.826;2022-10-17T00:52:53;8.83;;;5.10;;
64619;SDS011;51029;51.058;13.826;2022-10-17T00:55:23;9.93;;;5.30;;
64619;SDS011;51029;51.058;13.826;2022-10-17T00:57:53;6.93;;;5.23;;
64619;SDS011;51029;51.058;13.826;2022-10-17T01:00:20;10.43;;;5.20;;
64619;SDS011;51029;51.058;13.826;2022-10-17T01:02:46;12.73;;;5.90;;
64619;SDS011;51029;51.058;13.826;2022-10-17T01:05:12;10.73;;;5.77;;
64619;SDS011;51029;51.058;13.826;2022-10-17T01:07:39;10.60;;;6.13;;
64619;SDS011;51029;51.058;13.826;2022-10-17T01:10:06;10.17;;;6.43;;
64619;SDS011;51029;51.058;13.826;2022-10-17T01:29:02;14.80;;;9.10;;
64619;SDS011;51029;51.058;13.826;2022-10-17T01:31:46;10.70;;;8.83;;
64619;SDS011;51029;51.058;13.826;2022-10-17T01:34:23;12.43;;;8.47;;
64619;SDS011;51029;51.058;13.826;2022-10-17T01:37:07;15.07;;;9.77;;
64619;SDS011;51029;51.058;13.826;2022-10-17T01:39:43;11.77;;;9.93;;
64619;SDS011;51029;51.058;13.826;2022-10-17T01:42:17;14.10;;;9.70;;
64619;SDS011;51029;51.058;13.826;2022-10-17T01:44:55;17.07;;;10.50;;
64619;SDS011;51029;51.058;13.826;2022-10-17T01:47:24;14.43;;;10.17;;
64619;SDS011;51029;51.058;13.826;2022-10-17T01:49:53;13.63;;;10.33;;
64619;SDS011;51029;51.058;13.826;2022-10-17T01:52:31;19.07;;;11.20;;
64619;SDS011;51029;51.058;13.826;2022-10-17T01:55:07;15.53;;;10.67;;
64619;SDS011;51029;51.058;13.826;2022-10-17T01:57:41;13.80;;;10.73;;
64619;SDS011;51029;51.058;13.826;2022-10-17T02:00:12;15.60;;;11.10;;
64619;SDS011;51029;51.058;13.826;2022-10-17T02:02:44;19.27;;;11.33;;
64619;SDS011;51029;51.058;13.826;2022-10-17T02:05:13;18.07;;;12.50;;
64619;SDS011;51029;51.058;13.826;2022-10-17T02:07:42;19.67;;;13.23;;
64619;SDS011;51029;51.058;13.826;2022-10-17T02:10:10;18.57;;;11.93;;
64619;SDS011;51029;51.058;13.826;2022-10-17T02:12:47;17.80;;;12.27;;
64619;SDS011;51029;51.058;13.826;2022-10-17T02:20:42;20.07;;;13.27;;
64619;SDS011;51029;51.058;13.826;2022-10-17T02:23:26;19.33;;;13.97;;
64619;SDS011;51029;51.058;13.826;2022-10-17T02:31:24;21.97;;;17.40;;
64619;SDS011;51029;51.058;13.826;2022-10-17T02:36:26;24.27;;;19.07;;
64619;SDS011;51029;51.058;13.826;2022-10-17T02:38:55;26.87;;;19.10;;
64619;SDS011;51029;51.058;13.826;2022-10-17T02:41:22;31.13;;;19.77;;
64619;SDS011;51029;51.058;13.826;2022-10-17T02:43:49;23.70;;;18.90;;
64619;SDS011;51029;51.058;13.826;2022-10-17T02:46:17;28.43;;;19.97;;
64619;SDS011;51029;51.058;13.826;2022-10-17T02:48:52;29.80;;;21.80;;
64619;SDS011;51029;51.058;13.826;2022-10-17T02:51:32;29.97;;;21.93;;
64619;SDS011;51029;51.058;13.826;2022-10-17T02:59:42;31.50;;;23.80;;
64619;SDS011;51029;51.058;13.826;2022-10-17T03:02:09;40.37;;;25.10;;
64619;SDS011;51029;51.058;13.826;2022-10-17T03:04:36;37.33;;;24.67;;
64619;SDS011;51029;51.058;13.826;2022-10-17T03:07:02;39.53;;;26.23;;
64619;SDS011;51029;51.058;13.826;2022-10-17T03:09:27;40.50;;;27.57;;
64619;SDS011;51029;51.058;13.826;2022-10-17T03:11:53;38.37;;;26.33;;
64619;SDS011;51029;51.058;13.826;2022-10-17T03:14:19;39.17;;;27.40;;
64619;SDS011;51029;51.058;13.826;2022-10-17T03:16:44;41.90;;;28.10;;
64619;SDS011;51029;51.058;13.826;2022-10-17T03:19:10;49.00;;;31.17;;
64619;SDS011;51029;51.058;13.826;2022-10-17T03:21:35;46.40;;;31.07;;
64619;SDS011;51029;51.058;13.826;2022-10-17T03:24:02;45.33;;;30.23;;
64619;SDS011;51029;51.058;13.826;2022-10-17T03:26:28;44.07;;;28.60;;
64619;SDS011;51029;51.058;13.826;2022-10-17T03:28:54;46.20;;;31.33;;
64619;SDS011;51029;51.058;13.826;2022-10-17T03:31:20;50.20;;;30.80;;
64619;SDS011;51029;51.058;13.826;2022-10-17T03:33:46;42.83;;;29.73;;
64619;SDS011;51029;51.058;13.826;2022-10-17T03:36:12;49.83;;;30.83;;
64619;SDS011;51029;51.058;13.826;2022-10-17T03:38:40;54.73;;;32.47;;
64619;SDS011;51029;51.058;13.826;2022-10-17T03:41:06;54.77;;;30.70;;
64619;SDS011;51029;51.058;13.826;2022-10-17T03:43:32;47.00;;;29.93;;
64619;SDS011;51029;51.058;13.826;2022-10-17T03:45:58;43.37;;;29.33;;
64619;SDS011;51029;51.058;13.826;2022-10-17T03:48:25;43.80;;;26.97;;
64619;SDS011;51029;51.058;13.826;2022-10-17T03:50:51;36.83;;;26.63;;
64619;SDS011;51029;51.058;13.826;2022-10-17T03:53:21;36.70;;;24.93;;
64619;SDS011;51029;51.058;13.826;2022-10-17T03:55:47;41.70;;;27.33;;
64619;SDS011;51029;51.058;13.826;2022-10-17T03:58:12;41.03;;;27.07;;
64619;SDS011;51029;51.058;13.826;2022-10-17T04:00:38;40.57;;;26.60;;
64619;SDS011;51029;51.058;13.826;2022-10-17T04:03:04;40.43;;;27.30;;
64619;SDS011;51029;51.058;13.826;2022-10-17T04:05:29;45.43;;;26.30;;
64619;SDS011;51029;51.058;13.826;2022-10-17T04:07:55;40.47;;;26.30;;
64619;SDS011;51029;51.058;13.826;2022-10-17T04:10:20;39.07;;;26.07;;
64619;SDS011;51029;51.058;13.826;2022-10-17T04:12:46;35.67;;;25.80;;
64619;SDS011;51029;51.058;13.826;2022-10-17T04:15:11;42.80;;;27.23;;
64619;SDS011;51029;51.058;13.826;2022-10-17T04:17:37;44.23;;;28.20;;
64619;SDS011;51029;51.058;13.826;2022-10-17T04:20:03;46.53;;;28.67;;
64619;SDS011;51029;51.058;13.826;2022-10-17T04:22:29;53.00;;;32.07;;
64619;SDS011;51029;51.058;13.826;2022-10-17T04:24:54;51.53;;;33.13;;
64619;SDS011;51029;51.058;13.826;2022-10-17T04:27:20;61.27;;;40.03;;
64619;SDS011;51029;51.058;13.826;2022-10-17T04:29:45;61.70;;;38.43;;
64619;SDS011;51029;51.058;13.826;2022-10-17T04:32:11;61.47;;;39.23;;
64619;SDS011;51029;51.058;13.826;2022-10-17T04:34:36;56.23;;;36.27;;
64619;SDS011;51029;51.058;13.826;2022-10-17T04:37:02;58.20;;;34.63;;
64619;SDS011;51029;51.058;13.826;2022-10-17T04:39:28;57.53;;;36.77;;
64619;SDS011;51029;51.058;13.826;2022-10-17T04:41:54;66.20;;;39.97;;
64619;SDS011;51029;51.058;13.826;2022-10-17T04:44:20;63.77;;;42.47;;
64619;SDS011;51029;51.058;13.826;2022-10-17T04:46:46;68.63;;;41.57;;
64619;SDS011;51029;51.058;13.826;2022-10-17T04:49:11;64.93;;;40.17;;
64619;SDS011;51029;51.058;13.826;2022-10-17T04:51:37;80.63;;;52.53;;
64619;SDS011;51029;51.058;13.826;2022-10-17T04:54:03;69.93;;;46.23;;
64619;SDS011;51029;51.058;13.826;2022-10-17T04:56:29;76.93;;;49.87;;
64619;SDS011;51029;51.058;13.826;2022-10-17T04:58:55;69.30;;;43.70;;
64619;SDS011;51029;51.058;13.826;2022-10-17T05:01:22;63.73;;;42.47;;
64619;SDS011;51029;51.058;13.826;2022-10-17T05:03:47;67.93;;;42.87;;
64619;SDS011;51029;51.058;13.826;2022-10-17T05:06:14;66.17;;;43.73;;
64619;SDS011;51029;51.058;13.826;2022-10-17T05:08:45;69.40;;;45.60;;
64619;SDS011;51029;51.058;13.826;2022-10-17T05:11:15;64.30;;;42.97;;
64619;SDS011;51029;51.058;13.826;2022-10-17T05:13:41;60.97;;;42.50;;
64619;SDS011;51029;51.058;13.826;2022-10-17T05:16:07;65.20;;;43.50;;
64619;SDS011;51029;51.058;13.826;2022-10-17T05:18:32;60.73;;;43.30;;
64619;SDS011;51029;51.058;13.826;2022-10-17T05:20:58;64.30;;;43.73;;
64619;SDS011;51029;51.058;13.826;2022-10-17T05:23:23;61.67;;;44.47;;
64619;SDS011;51029;51.058;13.826;2022-10-17T05:25:53;65.37;;;43.80;;
64619;SDS011;51029;51.058;13.826;2022-10-17T05:28:19;63.43;;;45.33;;
64619;SDS011;51029;51.058;13.826;2022-10-17T05:30:45;64.53;;;43.87;;
64619;SDS011;51029;51.058;13.826;2022-10-17T05:33:10;65.17;;;44.73;;
64619;SDS011;51029;51.058;13.826;2022-10-17T05:35:36;64.60;;;43.80;;
64619;SDS011;51029;51.058;13.826;2022-10-17T05:38:01;64.83;;;44.10;;
64619;SDS011;51029;51.058;13.826;2022-10-17T05:40:27;64.33;;;43.00;;
64619;SDS011;51029;51.058;13.826;2022-10-17T05:42:53;62.37;;;43.57;;
64619;SDS011;51029;51.058;13.826;2022-10-17T05:45:18;63.10;;;44.93;;
64619;SDS011;51029;51.058;13.826;2022-10-17T05:47:44;63.20;;;44.70;;
64619;SDS011;51029;51.058;13.826;2022-10-17T05:50:10;65.57;;;45.73;;
64619;SDS011;51029;51.058;13.826;2022-10-17T05:52:35;67.43;;;46.37;;
64619;SDS011;51029;51.058;13.826;2022-10-17T05:55:01;65.83;;;45.87;;
64619;SDS011;51029;51.058;13.826;2022-10-17T05:57:28;63.33;;;45.00;;
64619;SDS011;51029;51.058;13.826;2022-10-17T05:59:54;65.87;;;45.23;;
64619;SDS011;51029;51.058;13.826;2022-10-17T06:02:19;60.73;;;45.40;;
64619;SDS011;51029;51.058;13.826;2022-10-17T06:04:45;68.73;;;45.90;;
64619;SDS011;51029;51.058;13.826;2022-10-17T06:07:12;64.20;;;48.57;;
64619;SDS011;51029;51.058;13.826;2022-10-17T06:09:38;62.70;;;46.10;;
64619;SDS011;51029;51.058;13.826;2022-10-17T06:12:04;61.10;;;44.63;;
64619;SDS011;51029;51.058;13.826;2022-10-17T06:14:30;63.27;;;46.83;;
64619;SDS011;51029;51.058;13.826;2022-10-17T06:16:55;59.60;;;42.87;;
64619;SDS011;51029;51.058;13.826;2022-10-17T06:19:21;60.50;;;43.97;;
64619;SDS011;51029;51.058;13.826;2022-10-17T06:21:47;58.00;;;43.37;;
64619;SDS011;51029;51.058;13.826;2022-10-17T06:24:12;59.33;;;43.60;;
64619;SDS011;51029;51.058;13.826;2022-10-17T06:26:38;53.40;;;42.10;;
64619;SDS011;51029;51.058;13.826;2022-10-17T06:29:04;60.93;;;43.30;;
64619;SDS011;51029;51.058;13.826;2022-10-17T06:31:29;55.27;;;40.77;;
64619;SDS011;51029;51.058;13.826;2022-10-17T06:33:55;54.40;;;41.10;;
64619;SDS011;51029;51.058;13.826;2022-10-17T06:36:20;54.30;;;40.50;;
64619;SDS011;51029;51.058;13.826;2022-10-17T06:38:46;53.67;;;41.80;;
64619;SDS011;51029;51.058;13.826;2022-10-17T06:41:12;51.27;;;40.77;;
64619;SDS011;51029;51.058;13.826;2022-10-17T06:43:42;56.47;;;43.30;;
64619;SDS011;51029;51.058;13.826;2022-10-17T06:46:15;52.13;;;39.83;;
64619;SDS011;51029;51.058;13.826;2022-10-17T06:48:42;46.83;;;37.47;;
64619;SDS011;51029;51.058;13.826;2022-10-17T06:51:08;50.43;;;38.53;;
64619;SDS011;51029;51.058;13.826;2022-10-17T06:53:35;45.63;;;36.90;;
64619;SDS011;51029;51.058;13.826;2022-10-17T06:56:03;48.87;;;38.37;;
64619;SDS011;51029;51.058;13.826;2022-10-17T06:58:30;49.43;;;38.13;;
64619;SDS011;51029;51.058;13.826;2022-10-17T07:00:58;49.63;;;38.60;;
64619;SDS011;51029;51.058;13.826;2022-10-17T07:03:28;49.67;;;38.27;;
64619;SDS011;51029;51.058;13.826;2022-10-17T07:05:54;45.67;;;37.87;;
64619;SDS011;51029;51.058;13.826;2022-10-17T07:08:21;44.50;;;37.30;;
64619;SDS011;51029;51.058;13.826;2022-10-17T07:10:46;47.67;;;37.83;;
64619;SDS011;51029;51.058;13.826;2022-10-17T07:13:12;45.90;;;36.97;;
64619;SDS011;51029;51.058;13.826;2022-10-17T07:15:39;51.83;;;39.60;;
64619;SDS011;51029;51.058;13.826;2022-10-17T07:18:04;44.07;;;35.57;;
64619;SDS011;51029;51.058;13.826;2022-10-17T07:20:30;43.20;;;35.13;;
64619;SDS011;51029;51.058;13.826;2022-10-17T07:22:56;46.77;;;36.37;;
64619;SDS011;51029;51.058;13.826;2022-10-17T07:25:21;45.33;;;36.97;;
64619;SDS011;51029;51.058;13.826;2022-10-17T07:27:50;44.20;;;36.77;;
64619;SDS011;51029;51.058;13.826;2022-10-17T07:30:17;43.57;;;36.67;;
64619;SDS011;51029;51.058;13.826;2022-10-17T07:32:43;43.30;;;33.50;;
64619;SDS011;51029;51.058;13.826;2022-10-17T07:35:09;37.90;;;32.20;;
64619;SDS011;51029;51.058;13.826;2022-10-17T07:37:35;35.73;;;30.20;;
64619;SDS011;51029;51.058;13.826;2022-10-17T07:40:01;37.60;;;31.10;;
64619;SDS011;51029;51.058;13.826;2022-10-17T07:42:27;34.93;;;29.37;;
64619;SDS011;51029;51.058;13.826;2022-10-17T07:44:53;30.50;;;26.63;;
64619;SDS011;51029;51.058;13.826;2022-10-17T07:47:19;30.70;;;26.80;;
64619;SDS011;51029;51.058;13.826;2022-10-17T07:49:45;31.00;;;27.27;;
64619;SDS011;51029;51.058;13.826;2022-10-17T07:52:14;29.80;;;25.87;;
64619;SDS011;51029;51.058;13.826;2022-10-17T07:54:40;27.70;;;24.13;;
64619;SDS011;51029;51.058;13.826;2022-10-17T07:57:06;27.30;;;24.27;;
64619;SDS011;51029;51.058;13.826;2022-10-17T07:59:32;27.77;;;23.53;;
64619;SDS011;51029;51.058;13.826;2022-10-17T08:01:58;25.93;;;23.07;;
64619;SDS011;51029;51.058;13.826;2022-10-17T08:04:25;26.00;;;22.07;;
64619;SDS011;51029;51.058;13.826;2022-10-17T08:06:51;23.07;;;20.63;;
64619;SDS011;51029;51.058;13.826;2022-10-17T08:09:17;25.97;;;21.83;;
64619;SDS011;51029;51.058;13.826;2022-10-17T08:11:42;23.03;;;20.23;;
64619;SDS011;51029;51.058;13.826;2022-10-17T08:14:12;21.70;;;19.40;;
64619;SDS011;51029;51.058;13.826;2022-10-17T08:16:38;22.37;;;20.00;;
64619;SDS011;51029;51.058;13.826;2022-10-17T08:19:04;21.73;;;18.37;;
64619;SDS011;51029;51.058;13.826;2022-10-17T08:21:32;22.20;;;19.93;;
64619;SDS011;51029;51.058;13.826;2022-10-17T08:23:58;21.87;;;18.80;;
64619;SDS011;51029;51.058;13.826;2022-10-17T08:26:26;21.40;;;18.90;;
64619;SDS011;51029;51.058;13.826;2022-10-17T08:28:52;21.07;;;18.93;;
64619;SDS011;51029;51.058;13.826;2022-10-17T08:31:18;21.80;;;19.60;;
64619;SDS011;51029;51.058;13.826;2022-10-17T08:33:45;19.83;;;17.87;;
64619;SDS011;51029;51.058;13.826;2022-10-17T08:36:12;20.17;;;18.10;;
64619;SDS011;51029;51.058;13.826;2022-10-17T08:38:39;19.87;;;17.80;;
64619;SDS011;51029;51.058;13.826;2022-10-17T08:41:12;20.63;;;18.53;;
64619;SDS011;51029;51.058;13.826;2022-10-17T08:46:35;21.37;;;19.27;;
64619;SDS011;51029;51.058;13.826;2022-10-17T08:49:05;21.63;;;19.43;;
64619;SDS011;51029;51.058;13.826;2022-10-17T08:51:38;21.83;;;18.70;;
64619;SDS011;51029;51.058;13.826;2022-10-17T08:54:54;21.70;;;19.40;;
64619;SDS011;51029;51.058;13.826;2022-10-17T08:57:10;23.47;;;20.70;;
64619;SDS011;51029;51.058;13.826;2022-10-17T08:59:38;23.67;;;21.27;;
64619;SDS011;51029;51.058;13.826;2022-10-17T09:04:47;22.57;;;20.23;;
64619;SDS011;51029;51.058;13.826;2022-10-17T09:10:26;22.53;;;20.33;;
64619;SDS011;51029;51.058;13.826;2022-10-17T09:21:32;24.63;;;20.20;;
64619;SDS011;51029;51.058;13.826;2022-10-17T09:24:08;23.27;;;20.97;;
64619;SDS011;51029;51.058;13.826;2022-10-17T09:26:58;23.33;;;20.23;;
64619;SDS011;51029;51.058;13.826;2022-10-17T09:29:24;22.87;;;20.57;;
64619;SDS011;51029;51.058;13.826;2022-10-17T09:32:04;22.63;;;20.23;;
64619;SDS011;51029;51.058;13.826;2022-10-17T09:34:41;20.27;;;18.33;;
64619;SDS011;51029;51.058;13.826;2022-10-17T09:37:10;20.47;;;18.37;;
64619;SDS011;51029;51.058;13.826;2022-10-17T09:39:38;21.07;;;18.97;;
64619;SDS011;51029;51.058;13.826;2022-10-17T09:42:06;19.97;;;17.90;;
64619;SDS011;51029;51.058;13.826;2022-10-17T09:44:39;20.20;;;18.27;;
64619;SDS011;51029;51.058;13.826;2022-10-17T09:47:30;19.50;;;17.60;;
64619;SDS011;51029;51.058;13.826;2022-10-17T09:50:08;19.00;;;17.20;;
64619;SDS011;51029;51.058;13.826;2022-10-17T09:52:50;19.08;;;17.17;;
64619;SDS011;51029;51.058;13.826;2022-10-17T09:58:05;17.35;;;15.32;;
64619;SDS011;51029;51.058;13.826;2022-10-17T10:00:33;16.83;;;15.18;;
64619;SDS011;51029;51.058;13.826;2022-10-17T10:03:17;17.13;;;15.52;;
64619;SDS011;51029;51.058;13.826;2022-10-17T10:08:27;16.67;;;15.00;;
64619;SDS011;51029;51.058;13.826;2022-10-17T10:10:59;17.65;;;15.00;;
64619;SDS011;51029;51.058;13.826;2022-10-17T10:13:28;17.02;;;15.45;;
64619;SDS011;51029;51.058;13.826;2022-10-17T10:16:11;19.40;;;15.48;;
64619;SDS011;51029;51.058;13.826;2022-10-17T10:18:57;16.35;;;14.85;;
64619;SDS011;51029;51.058;13.826;2022-10-17T10:21:24;16.35;;;14.68;;
64619;SDS011;51029;51.058;13.826;2022-10-17T10:26:29;16.23;;;14.63;;
64619;SDS011;51029;51.058;13.826;2022-10-17T10:29:25;15.40;;;14.00;;
64619;SDS011;51029;51.058;13.826;2022-10-17T10:31:55;15.38;;;13.90;;
64619;SDS011;51029;51.058;13.826;2022-10-17T10:34:31;15.85;;;14.35;;
64619;SDS011;51029;51.058;13.826;2022-10-17T10:37:03;15.05;;;13.68;;
64619;SDS011;51029;51.058;13.826;2022-10-17T10:44:58;16.17;;;14.60;;
64619;SDS011;51029;51.058;13.826;2022-10-17T10:47:39;15.45;;;13.90;;
64619;SDS011;51029;51.058;13.826;2022-10-17T10:50:17;15.20;;;13.80;;
64619;SDS011;51029;51.058;13.826;2022-10-17T10:55:30;14.32;;;12.93;;
64619;SDS011;51029;51.058;13.826;2022-10-17T10:58:02;15.25;;;13.85;;
64619;SDS011;51029;51.058;13.826;2022-10-17T11:00:44;16.17;;;13.20;;
64619;SDS011;51029;51.058;13.826;2022-10-17T11:05:48;14.25;;;12.85;;
64619;SDS011;51029;51.058;13.826;2022-10-17T11:08:41;15.32;;;12.38;;
64619;SDS011;51029;51.058;13.826;2022-10-17T11:11:14;13.25;;;11.95;;
64619;SDS011;51029;51.058;13.826;2022-10-17T11:13:59;15.60;;;12.70;;
64619;SDS011;51029;51.058;13.826;2022-10-17T11:16:44;13.18;;;11.93;;
64619;SDS011;51029;51.058;13.826;2022-10-17T11:19:23;13.35;;;11.95;;
64619;SDS011;51029;51.058;13.826;2022-10-17T11:22:00;13.00;;;11.70;;
64619;SDS011;51029;51.058;13.826;2022-10-17T11:24:39;12.90;;;11.57;;
64619;SDS011;51029;51.058;13.826;2022-10-17T11:27:12;13.20;;;12.00;;
64619;SDS011;51029;51.058;13.826;2022-10-17T11:29:39;12.65;;;11.52;;
64619;SDS011;51029;51.058;13.826;2022-10-17T11:40:41;11.88;;;10.55;;
64619;SDS011;51029;51.058;13.826;2022-10-17T11:45:43;11.40;;;10.25;;
64619;SDS011;51029;51.058;13.826;2022-10-17T11:50:42;11.70;;;10.35;;
64619;SDS011;51029;51.058;13.826;2022-10-17T11:53:15;13.57;;;10.32;;
64619;SDS011;51029;51.058;13.826;2022-10-17T11:55:41;11.43;;;10.32;;
64619;SDS011;51029;51.058;13.826;2022-10-17T11:58:21;11.15;;;10.13;;
64619;SDS011;51029;51.058;13.826;2022-10-17T12:00:57;11.45;;;10.25;;
64619;SDS011;51029;51.058;13.826;2022-10-17T12:12:23;11.75;;;10.05;;
64619;SDS011;51029;51.058;13.826;2022-10-17T12:14:53;11.27;;;10.38;;
64619;SDS011;51029;51.058;13.826;2022-10-17T12:17:43;11.68;;;10.57;;
64619;SDS011;51029;51.058;13.826;2022-10-17T12:20:21;11.50;;;10.32;;
64619;SDS011;51029;51.058;13.826;2022-10-17T12:22:49;13.30;;;11.10;;
64619;SDS011;51029;51.058;13.826;2022-10-17T12:25:21;12.63;;;11.43;;
64619;SDS011;51029;51.058;13.826;2022-10-17T12:30:51;11.98;;;10.98;;
64619;SDS011;51029;51.058;13.826;2022-10-17T12:33:18;11.35;;;10.35;;
64619;SDS011;51029;51.058;13.826;2022-10-17T12:35:50;12.05;;;10.60;;
64619;SDS011;51029;51.058;13.826;2022-10-17T12:38:36;13.38;;;11.13;;
64619;SDS011;51029;51.058;13.826;2022-10-17T12:41:03;11.23;;;10.18;;
64619;SDS011;51029;51.058;13.826;2022-10-17T12:45:55;12.15;;;11.05;;
64619;SDS011;51029;51.058;13.826;2022-10-17T12:51:13;11.98;;;10.88;;
64619;SDS011;51029;51.058;13.826;2022-10-17T12:53:53;11.55;;;10.43;;
64619;SDS011;51029;51.058;13.826;2022-10-17T12:56:43;11.57;;;10.57;;
64619;SDS011;51029;51.058;13.826;2022-10-17T13:01:46;12.50;;;11.30;;
64619;SDS011;51029;51.058;13.826;2022-10-17T13:04:14;12.30;;;11.10;;
64619;SDS011;51029;51.058;13.826;2022-10-17T13:06:45;12.35;;;11.15;;
64619;SDS011;51029;51.058;13.826;2022-10-17T13:09:17;12.07;;;10.98;;
64619;SDS011;51029;51.058;13.826;2022-10-17T13:11:47;12.57;;;11.20;;
64619;SDS011;51029;51.058;13.826;2022-10-17T13:14:15;13.52;;;12.23;;
64619;SDS011;51029;51.058;13.826;2022-10-17T13:19:16;13.70;;;12.35;;
64619;SDS011;51029;51.058;13.826;2022-10-17T13:24:38;14.57;;;13.27;;
64619;SDS011;51029;51.058;13.826;2022-10-17T13:27:06;14.32;;;12.93;;
64619;SDS011;51029;51.058;13.826;2022-10-17T13:29:50;14.50;;;12.48;;
64619;SDS011;51029;51.058;13.826;2022-10-17T13:32:16;14.63;;;13.20;;
64619;SDS011;51029;51.058;13.826;2022-10-17T13:34:42;15.23;;;13.73;;
64619;SDS011;51029;51.058;13.826;2022-10-17T13:37:09;15.32;;;13.70;;
64619;SDS011;51029;51.058;13.826;2022-10-17T13:39:42;15.70;;;14.07;;
64619;SDS011;51029;51.058;13.826;2022-10-17T13:42:19;16.73;;;14.93;;
64619;SDS011;51029;51.058;13.826;2022-10-17T13:44:48;16.95;;;15.35;;
64619;SDS011;51029;51.058;13.826;2022-10-17T13:47:23;18.13;;;16.35;;
64619;SDS011;51029;51.058;13.826;2022-10-17T13:49:54;17.50;;;15.80;;
64619;SDS011;51029;51.058;13.826;2022-10-17T13:52:25;17.27;;;15.50;;
64619;SDS011;51029;51.058;13.826;2022-10-17T13:54:53;18.15;;;16.17;;
64619;SDS011;51029;51.058;13.826;2022-10-17T13:57:21;18.90;;;17.02;;
64619;SDS011;51029;51.058;13.826;2022-10-17T13:59:50;19.88;;;17.75;;
64619;SDS011;51029;51.058;13.826;2022-10-17T14:02:25;19.80;;;17.98;;
64619;SDS011;51029;51.058;13.826;2022-10-17T14:05:00;20.73;;;18.70;;
64619;SDS011;51029;51.058;13.826;2022-10-17T14:10:03;20.85;;;18.92;;
64619;SDS011;51029;51.058;13.826;2022-10-17T14:12:30;21.02;;;18.85;;
64619;SDS011;51029;51.058;13.826;2022-10-17T14:14:57;22.42;;;20.08;;
64619;SDS011;51029;51.058;13.826;2022-10-17T14:17:27;20.58;;;18.55;;
64619;SDS011;51029;51.058;13.826;2022-10-17T14:19:57;21.05;;;18.98;;
64619;SDS011;51029;51.058;13.826;2022-10-17T14:22:28;19.23;;;17.35;;
64619;SDS011;51029;51.058;13.826;2022-10-17T14:24:58;21.30;;;18.75;;
64619;SDS011;51029;51.058;13.826;2022-10-17T14:27:36;21.13;;;18.85;;
64619;SDS011;51029;51.058;13.826;2022-10-17T14:32:52;21.30;;;19.20;;
64619;SDS011;51029;51.058;13.826;2022-10-17T14:35:25;22.00;;;19.52;;
64619;SDS011;51029;51.058;13.826;2022-10-17T14:37:51;26.30;;;21.13;;
64619;SDS011;51029;51.058;13.826;2022-10-17T14:40:22;27.90;;;20.07;;
64619;SDS011;51029;51.058;13.826;2022-10-17T14:42:50;22.93;;;20.73;;
64619;SDS011;51029;51.058;13.826;2022-10-17T14:45:29;23.80;;;21.30;;
64619;SDS011;51029;51.058;13.826;2022-10-17T14:47:59;23.63;;;20.97;;
64619;SDS011;51029;51.058;13.826;2022-10-17T14:50:38;23.73;;;21.23;;
64619;SDS011;51029;51.058;13.826;2022-10-17T14:55:36;29.63;;;23.20;;
64619;SDS011;51029;51.058;13.826;2022-10-17T15:01:01;27.20;;;23.80;;
64619;SDS011;51029;51.058;13.826;2022-10-17T15:03:27;25.53;;;22.03;;
64619;SDS011;51029;51.058;13.826;2022-10-17T15:05:53;27.13;;;22.43;;
64619;SDS011;51029;51.058;13.826;2022-10-17T15:08:20;26.20;;;22.13;;
64619;SDS011;51029;51.058;13.826;2022-10-17T15:10:46;22.53;;;20.30;;
64619;SDS011;51029;51.058;13.826;2022-10-17T15:13:13;24.20;;;20.40;;
64619;SDS011;51029;51.058;13.826;2022-10-17T15:15:40;24.10;;;21.60;;
64619;SDS011;51029;51.058;13.826;2022-10-17T15:18:06;24.00;;;21.60;;
64619;SDS011;51029;51.058;13.826;2022-10-17T15:20:35;25.77;;;21.87;;
64619;SDS011;51029;51.058;13.826;2022-10-17T15:23:02;24.20;;;20.83;;
64619;SDS011;51029;51.058;13.826;2022-10-17T15:25:28;23.90;;;20.97;;
64619;SDS011;51029;51.058;13.826;2022-10-17T15:27:55;23.40;;;20.90;;
64619;SDS011;51029;51.058;13.826;2022-10-17T15:30:26;24.03;;;20.50;;
64619;SDS011;51029;51.058;13.826;2022-10-17T15:32:52;23.93;;;21.33;;
64619;SDS011;51029;51.058;13.826;2022-10-17T15:35:18;24.30;;;20.30;;
64619;SDS011;51029;51.058;13.826;2022-10-17T15:37:45;22.97;;;20.67;;
64619;SDS011;51029;51.058;13.826;2022-10-17T15:40:22;25.37;;;21.07;;
64619;SDS011;51029;51.058;13.826;2022-10-17T15:42:49;26.67;;;21.60;;
64619;SDS011;51029;51.058;13.826;2022-10-17T15:45:15;24.73;;;22.03;;
64619;SDS011;51029;51.058;13.826;2022-10-17T15:47:42;24.43;;;21.73;;
64619;SDS011;51029;51.058;13.826;2022-10-17T15:50:14;25.43;;;22.10;;
64619;SDS011;51029;51.058;13.826;2022-10-17T15:52:40;25.20;;;22.30;;
64619;SDS011;51029;51.058;13.826;2022-10-17T15:55:07;24.47;;;21.77;;
64619;SDS011;51029;51.058;13.826;2022-10-17T15:57:35;25.97;;;22.67;;
64619;SDS011;51029;51.058;13.826;2022-10-17T16:00:03;27.03;;;23.20;;
64619;SDS011;51029;51.058;13.826;2022-10-17T16:02:31;25.93;;;23.13;;
64619;SDS011;51029;51.058;13.826;2022-10-17T16:04:57;25.93;;;22.40;;
64619;SDS011;51029;51.058;13.826;2022-10-17T16:07:23;27.23;;;22.97;;
64619;SDS011;51029;51.058;13.826;2022-10-17T16:09:49;26.60;;;22.67;;
64619;SDS011;51029;51.058;13.826;2022-10-17T16:12:25;27.53;;;23.77;;
64619;SDS011;51029;51.058;13.826;2022-10-17T16:14:53;27.97;;;23.13;;
64619;SDS011;51029;51.058;13.826;2022-10-17T16:17:19;27.70;;;24.17;;
64619;SDS011;51029;51.058;13.826;2022-10-17T16:19:45;30.97;;;23.83;;
64619;SDS011;51029;51.058;13.826;2022-10-17T16:22:29;30.17;;;23.77;;
64619;SDS011;51029;51.058;13.826;2022-10-17T16:24:56;31.17;;;24.77;;
64619;SDS011;51029;51.058;13.826;2022-10-17T16:27:31;30.03;;;24.70;;